Time;durP1;ratioP1;P1;durP2;ratioP2;P2;SDS_P1;SDS_P2;PMS_P1;PMS_P2;Temp;Humidity;BMP_temperature;BMP_pressure;BME280_temperature;BME280_humidity;BME280_pressure;Samples;Min_cycle;Max_cycle;Signal;HPM_P1;HPM_P2
2022/10/03 00:00:57;;;;;;;7.00;2.20;;;;;;;;;;6246332;28;20060;-67
2022/10/03 00:04:09;;;;;;;9.98;2.60;;;;;;;;;;6242509;28;20108;-67
2022/10/03 00:07:34;;;;;;;10.23;2.00;;;;;;;;;;6244483;28;20053;-67
2022/10/03 00:10:51;;;;;;;11.05;2.63;;;;;;;;;;6244439;28;20348;-70
2022/10/03 00:13:58;;;;;;;6.85;1.85;;;;;;;;;;6244108;28;20049;-68
2022/10/03 00:17:03;;;;;;;7.82;1.58;;;;;;;;;;6247755;28;20333;-68
2022/10/03 00:20:27;;;;;;;14.43;3.75;;;;;;;;;;6245898;28;20294;-68
2022/10/03 00:23:39;;;;;;;7.28;1.80;;;;;;;;;;6235322;28;20052;-67
2022/10/03 00:26:53;;;;;;;5.70;1.70;;;;;;;;;;6236874;28;20061;-67
2022/10/03 00:30:02;;;;;;;10.43;1.98;;;;;;;;;;6248023;28;20338;-68
2022/10/03 00:33:14;;;;;;;7.57;1.98;;;;;;;;;;6237048;28;20042;-68
2022/10/03 00:36:22;;;;;;;8.25;1.75;;;;;;;;;;6218609;28;20054;-68
2022/10/03 00:39:36;;;;;;;7.80;2.20;;;;;;;;;;6244773;28;20084;-67
2022/10/03 00:43:26;;;;;;;7.22;1.80;;;;;;;;;;6239289;28;20132;-68
2022/10/03 00:47:04;;;;;;;9.25;1.90;;;;;;;;;;6244759;28;20068;-67
2022/10/03 00:50:18;;;;;;;9.30;2.00;;;;;;;;;;6234336;28;20057;-69
2022/10/03 00:53:32;;;;;;;8.57;2.00;;;;;;;;;;6230155;28;20049;-67
2022/10/03 00:56:49;;;;;;;7.38;1.73;;;;;;;;;;6223227;28;20100;-68
2022/10/03 01:00:04;;;;;;;6.63;2.25;;;;;;;;;;6246391;28;20053;-68
2022/10/03 01:03:26;;;;;;;7.97;2.30;;;;;;;;;;6247682;28;20341;-72
2022/10/03 01:06:34;;;;;;;7.32;1.75;;;;;;;;;;6242981;28;20325;-68
2022/10/03 01:09:48;;;;;;;6.80;1.95;;;;;;;;;;6248646;28;20349;-68
2022/10/03 01:13:20;;;;;;;11.18;5.05;;;;;;;;;;6244369;28;20064;-68
2022/10/03 01:16:31;;;;;;;12.10;4.63;;;;;;;;;;6242856;28;20333;-71
2022/10/03 01:19:59;;;;;;;8.68;3.75;;;;;;;;;;6246630;28;20077;-68
2022/10/03 01:23:28;;;;;;;9.13;3.00;;;;;;;;;;6241547;28;20060;-68
2022/10/03 01:26:54;;;;;;;6.57;2.30;;;;;;;;;;6243535;28;20049;-69
2022/10/03 01:33:26;;;;;;;7.32;3.88;;;;;;;;;;6243335;28;20045;-69
2022/10/03 01:36:34;;;;;;;5.80;3.40;;;;;;;;;;6243253;28;20132;-68
2022/10/03 01:39:42;;;;;;;9.05;3.17;;;;;;;;;;6248394;28;20042;-67
2022/10/03 01:42:53;;;;;;;8.93;3.95;;;;;;;;;;6244765;28;20061;-68
2022/10/03 01:46:04;;;;;;;9.63;2.58;;;;;;;;;;6245069;28;20276;-68
2022/10/03 01:49:11;;;;;;;7.15;2.50;;;;;;;;;;6245349;28;20396;-68
2022/10/03 01:52:19;;;;;;;6.95;2.28;;;;;;;;;;6247157;28;20057;-67
2022/10/03 01:55:28;;;;;;;7.25;2.28;;;;;;;;;;6244058;28;20037;-68
2022/10/03 01:58:40;;;;;;;8.23;2.63;;;;;;;;;;6246311;28;20050;-67
2022/10/03 02:01:49;;;;;;;10.25;2.85;;;;;;;;;;6244697;28;20053;-68
2022/10/03 02:04:59;;;;;;;6.80;2.70;;;;;;;;;;6248524;28;20201;-68
2022/10/03 02:08:03;;;;;;;4.85;2.50;;;;;;;;;;6245234;28;20233;-68
2022/10/03 02:11:07;;;;;;;6.38;2.50;;;;;;;;;;6244550;28;20510;-68
2022/10/03 02:14:20;;;;;;;7.00;3.10;;;;;;;;;;6247156;28;20120;-67
2022/10/03 02:17:34;;;;;;;6.65;2.60;;;;;;;;;;6245615;28;20108;-68
2022/10/03 02:20:42;;;;;;;12.48;2.97;;;;;;;;;;6243980;28;20049;-69
2022/10/03 02:23:45;;;;;;;6.35;3.17;;;;;;;;;;6247353;28;20060;-67
2022/10/03 02:27:03;;;;;;;6.75;3.42;;;;;;;;;;6244143;28;20096;-68
2022/10/03 02:30:12;;;;;;;8.27;3.60;;;;;;;;;;6246183;28;20715;-68
2022/10/03 02:33:42;;;;;;;8.68;3.25;;;;;;;;;;6245194;28;20077;-68
2022/10/03 02:37:04;;;;;;;12.60;6.30;;;;;;;;;;6246738;28;20238;-69
2022/10/03 02:40:28;;;;;;;10.55;3.80;;;;;;;;;;6243811;28;20437;-68
2022/10/03 02:43:46;;;;;;;;;;;;;;;;;;6216880;28;20050;-68
2022/10/03 02:47:26;;;;;;;33.70;23.35;;;;;;;;;;6217290;28;19925;-67
2022/10/03 02:50:54;;;;;;;20.85;13.63;;;;;;;;;;6202556;28;20041;-68
2022/10/03 02:54:48;;;;;;;13.07;8.77;;;;;;;;;;6191190;28;20080;-68
2022/10/03 02:58:33;;;;;;;11.43;7.13;;;;;;;;;;6137821;28;20297;-66
2022/10/03 03:02:00;;;;;;;14.40;4.88;;;;;;;;;;6128950;28;20047;-64
2022/10/03 03:05:18;;;;;;;7.18;3.60;;;;;;;;;;6141221;28;20098;-66
2022/10/03 03:08:50;;;;;;;8.48;3.30;;;;;;;;;;6145006;28;20063;-67
2022/10/03 03:12:36;;;;;;;11.10;3.75;;;;;;;;;;6141090;28;20078;-68
2022/10/03 03:16:11;;;;;;;6.65;3.50;;;;;;;;;;6142673;28;20347;-67
2022/10/03 03:19:43;;;;;;;8.73;3.08;;;;;;;;;;6122941;28;21685;-67
2022/10/03 03:22:57;;;;;;;8.93;2.70;;;;;;;;;;6143315;28;20535;-68
2022/10/03 03:26:34;;;;;;;6.20;3.13;;;;;;;;;;6143862;28;20079;-67
2022/10/03 03:29:43;;;;;;;9.32;4.07;;;;;;;;;;6244459;28;20329;-68
2022/10/03 03:32:56;;;;;;;9.85;3.47;;;;;;;;;;6243676;28;20057;-68
2022/10/03 03:36:04;;;;;;;9.65;3.13;;;;;;;;;;6244790;28;20057;-67
2022/10/03 03:39:15;;;;;;;8.52;2.95;;;;;;;;;;6243094;28;20210;-68
2022/10/03 03:42:34;;;;;;;5.80;2.72;;;;;;;;;;6244766;28;20071;-67
2022/10/03 03:45:48;;;;;;;7.32;3.00;;;;;;;;;;6245458;28;20091;-67
2022/10/03 03:49:00;;;;;;;21.77;7.30;;;;;;;;;;6244083;28;20057;-67
2022/10/03 03:52:13;;;;;;;15.18;5.00;;;;;;;;;;6241084;28;20067;-66
2022/10/03 03:55:33;;;;;;;14.60;3.20;;;;;;;;;;6244753;28;20337;-66
2022/10/03 03:58:40;;;;;;;10.73;3.50;;;;;;;;;;6245098;28;20099;-66
2022/10/03 04:01:55;;;;;;;10.25;3.60;;;;;;;;;;6244683;28;20045;-67
2022/10/03 04:05:09;;;;;;;5.90;3.22;;;;;;;;;;6244055;28;20100;-68
2022/10/03 04:08:22;;;;;;;8.10;3.22;;;;;;;;;;6244618;28;20064;-66
2022/10/03 04:11:27;;;;;;;6.87;3.40;;;;;;;;;;6234678;28;20061;-68
2022/10/03 04:14:56;;;;;;;6.30;3.00;;;;;;;;;;6218616;28;20068;-68
2022/10/03 04:22:18;;;;;;;11.00;3.50;;;;;;;;;;6242555;28;21187;-66
2022/10/03 04:25:34;;;;;;;7.70;3.30;;;;;;;;;;6215037;28;20053;-66
2022/10/03 04:28:50;;;;;;;6.07;3.40;;;;;;;;;;6218536;28;20117;-66
2022/10/03 04:32:01;;;;;;;6.95;3.80;;;;;;;;;;6219768;28;20077;-65
2022/10/03 04:35:13;;;;;;;4.72;3.28;;;;;;;;;;6215447;28;20097;-67
2022/10/03 04:38:20;;;;;;;5.72;3.17;;;;;;;;;;6221210;28;20400;-65
2022/10/03 04:41:29;;;;;;;6.32;3.10;;;;;;;;;;6243455;28;20072;-66
2022/10/03 04:44:41;;;;;;;8.13;3.78;;;;;;;;;;6243443;28;20054;-67
2022/10/03 04:49:12;;;;;;;8.05;3.45;;;;;;;;;;6280449;27;20196;-64
2022/10/03 04:52:20;;;;;;;7.20;4.05;;;;;;;;;;6289023;28;20057;-64
2022/10/03 04:55:27;;;;;;;7.32;4.70;;;;;;;;;;6287137;28;20049;-65
2022/10/03 04:58:36;;;;;;;7.80;4.50;;;;;;;;;;6285741;28;20061;-64
2022/10/03 05:01:44;;;;;;;6.68;4.53;;;;;;;;;;6287369;28;20080;-66
2022/10/03 05:04:59;;;;;;;6.70;4.22;;;;;;;;;;6288746;28;20386;-64
2022/10/03 05:08:06;;;;;;;11.73;5.13;;;;;;;;;;6285045;28;20278;-64
2022/10/03 05:11:20;;;;;;;8.75;4.47;;;;;;;;;;6289099;28;20098;-65
2022/10/03 05:14:27;;;;;;;10.95;4.53;;;;;;;;;;6289485;28;20063;-63
2022/10/03 05:17:34;;;;;;;7.72;4.25;;;;;;;;;;6285954;28;20095;-65
2022/10/03 05:20:44;;;;;;;11.20;4.32;;;;;;;;;;6285382;28;20099;-65
2022/10/03 05:23:54;;;;;;;8.23;4.88;;;;;;;;;;6280885;28;20049;-65
2022/10/03 05:27:02;;;;;;;8.45;4.63;;;;;;;;;;6287530;28;20120;-66
2022/10/03 05:30:07;;;;;;;6.18;4.45;;;;;;;;;;6286571;28;20060;-65
2022/10/03 05:33:17;;;;;;;5.90;4.22;;;;;;;;;;6282303;28;20247;-65
2022/10/03 05:36:29;;;;;;;7.72;4.57;;;;;;;;;;6282879;28;20107;-66
2022/10/03 05:39:39;;;;;;;10.90;5.13;;;;;;;;;;6285708;28;20051;-65
2022/10/03 05:42:58;;;;;;;10.02;5.65;;;;;;;;;;6286525;28;20052;-66
2022/10/03 05:46:04;;;;;;;12.02;5.88;;;;;;;;;;6282029;28;20049;-66
2022/10/03 05:49:19;;;;;;;11.30;6.32;;;;;;;;;;6282247;28;20325;-67
2022/10/03 05:52:34;;;;;;;8.80;6.10;;;;;;;;;;6284781;28;20053;-66
2022/10/03 05:55:45;;;;;;;11.13;5.72;;;;;;;;;;6282877;28;20206;-67
2022/10/03 05:59:07;;;;;;;12.55;6.68;;;;;;;;;;6276210;28;20095;-68
2022/10/03 06:02:41;;;;;;;10.40;6.20;;;;;;;;;;6269741;28;20060;-66
2022/10/03 06:05:56;;;;;;;11.95;6.32;;;;;;;;;;6253788;28;20229;-66
2022/10/03 06:09:27;;;;;;;12.48;6.63;;;;;;;;;;6265195;28;20241;-66
2022/10/03 06:12:34;;;;;;;14.38;6.80;;;;;;;;;;6266493;28;20045;-66
2022/10/03 06:15:53;;;;;;;11.10;6.80;;;;;;;;;;6267281;28;20132;-66
2022/10/03 06:19:07;;;;;;;13.65;7.70;;;;;;;;;;6263322;28;20371;-66
2022/10/03 06:22:42;;;;;;;12.23;7.93;;;;;;;;;;6267582;28;20127;-68
2022/10/03 06:26:02;;;;;;;15.23;9.07;;;;;;;;;;6265328;28;20045;-68
2022/10/03 06:29:28;;;;;;;16.25;8.10;;;;;;;;;;6263465;28;20057;-69
2022/10/03 06:33:05;;;;;;;14.20;8.45;;;;;;;;;;6270415;28;20052;-66
2022/10/03 06:36:27;;;;;;;19.33;9.13;;;;;;;;;;6263871;28;20060;-66
2022/10/03 06:40:02;;;;;;;18.23;9.18;;;;;;;;;;6265816;28;20076;-67
2022/10/03 06:43:36;;;;;;;18.30;9.32;;;;;;;;;;6265178;28;20068;-66
2022/10/03 06:47:05;;;;;;;18.67;9.80;;;;;;;;;;6263414;28;20325;-68
2022/10/03 06:50:31;;;;;;;14.10;9.93;;;;;;;;;;6240672;28;20060;-67
2022/10/03 06:53:43;;;;;;;17.95;10.45;;;;;;;;;;6258376;28;20155;-66
2022/10/03 06:57:03;;;;;;;14.85;10.25;;;;;;;;;;6262734;28;20046;-66
2022/10/03 07:00:14;;;;;;;15.60;10.13;;;;;;;;;;6269598;28;20053;-66
2022/10/03 07:04:00;;;;;;;18.67;10.18;;;;;;;;;;6266069;28;20297;-67
2022/10/03 07:07:27;;;;;;;17.38;10.23;;;;;;;;;;6167120;28;20063;-67
2022/10/03 07:11:01;;;;;;;16.50;10.63;;;;;;;;;;6162428;28;20051;-68
2022/10/03 07:14:38;;;;;;;18.80;10.35;;;;;;;;;;6163097;28;20057;-66
2022/10/03 07:17:51;;;;;;;20.00;10.40;;;;;;;;;;6134738;28;20047;-68
2022/10/03 07:21:31;;;;;;;16.87;11.00;;;;;;;;;;6165814;28;20058;-70
2022/10/03 07:25:24;;;;;;;16.45;11.18;;;;;;;;;;6162193;28;20047;-68
2022/10/03 07:28:45;;;;;;;18.45;11.80;;;;;;;;;;6081208;29;20092;-66
2022/10/03 07:32:00;;;;;;;20.33;11.38;;;;;;;;;;6076919;29;20124;-66
2022/10/03 07:39:24;;;;;;;21.48;12.85;;;;;;;;;;6081437;29;20052;-67
2022/10/03 07:42:58;;;;;;;20.52;12.43;;;;;;;;;;6183432;28;20396;-67
2022/10/03 07:46:14;;;;;;;21.05;12.32;;;;;;;;;;6189506;28;20077;-67
2022/10/03 07:49:30;;;;;;;17.52;12.13;;;;;;;;;;6189204;28;20299;-66
2022/10/03 07:52:52;;;;;;;17.88;12.73;;;;;;;;;;6188364;28;20070;-67
2022/10/03 07:56:12;;;;;;;21.80;12.70;;;;;;;;;;6191802;28;20583;-67
2022/10/03 07:59:51;;;;;;;15.65;12.15;;;;;;;;;;6190755;28;20436;-67
2022/10/03 08:03:31;;;;;;;21.88;12.20;;;;;;;;;;6241490;28;20276;-67
2022/10/03 08:06:38;;;;;;;19.60;12.82;;;;;;;;;;6262928;28;20124;-67
2022/10/03 08:09:55;;;;;;;19.10;13.30;;;;;;;;;;6265575;28;20042;-67
2022/10/03 08:13:19;;;;;;;26.90;14.00;;;;;;;;;;6263675;28;20053;-67
2022/10/03 08:16:36;;;;;;;22.40;13.23;;;;;;;;;;6264051;28;20056;-67
2022/10/03 08:20:05;;;;;;;18.60;12.02;;;;;;;;;;6265078;28;20117;-67
2022/10/03 08:23:27;;;;;;;18.10;13.43;;;;;;;;;;6260084;28;20064;-67
2022/10/03 08:26:55;;;;;;;20.33;12.90;;;;;;;;;;6263295;28;20049;-68
2022/10/03 08:30:19;;;;;;;16.67;12.07;;;;;;;;;;6262692;28;20037;-67
2022/10/03 08:33:36;;;;;;;20.70;12.40;;;;;;;;;;6264106;28;20045;-66
2022/10/03 08:37:05;;;;;;;16.20;12.25;;;;;;;;;;6268422;28;20260;-67
2022/10/03 08:40:41;;;;;;;17.20;13.13;;;;;;;;;;6265912;28;20053;-67
2022/10/03 08:44:09;;;;;;;22.00;11.80;;;;;;;;;;6263756;28;20040;-68
2022/10/03 08:48:03;;;;;;;17.42;11.90;;;;;;;;;;6259429;28;20084;-67
2022/10/03 08:51:44;;;;;;;20.60;13.15;;;;;;;;;;6160485;28;20086;-67
2022/10/03 08:55:23;;;;;;;17.98;11.60;;;;;;;;;;6141681;28;20054;-67
2022/10/03 08:59:09;;;;;;;17.55;12.30;;;;;;;;;;6164097;28;20059;-67
2022/10/03 09:02:47;;;;;;;20.65;12.18;;;;;;;;;;6162479;28;20047;-67
2022/10/03 09:06:23;;;;;;;19.75;12.05;;;;;;;;;;6162887;28;20126;-67
2022/10/03 09:10:02;;;;;;;16.40;10.60;;;;;;;;;;6124887;28;20081;-67
2022/10/03 09:13:33;;;;;;;22.88;10.75;;;;;;;;;;6168990;28;54912;-67
2022/10/03 09:16:47;;;;;;;15.73;10.23;;;;;;;;;;6186068;28;20046;-67
2022/10/03 09:20:16;;;;;;;13.82;9.20;;;;;;;;;;6161830;28;20077;-67
2022/10/03 09:23:49;;;;;;;12.77;9.35;;;;;;;;;;6216744;28;20617;-68
2022/10/03 09:27:14;;;;;;;13.70;8.40;;;;;;;;;;6215515;28;20072;-68
2022/10/03 09:30:24;;;;;;;10.93;7.57;;;;;;;;;;6189418;28;20069;-69
2022/10/03 09:33:55;;;;;;;10.98;8.07;;;;;;;;;;6214069;28;20077;-68
2022/10/03 09:37:30;;;;;;;10.65;7.38;;;;;;;;;;6220570;28;20081;-69
2022/10/03 09:40:59;;;;;;;11.32;8.95;;;;;;;;;;6216144;28;20406;-68
2022/10/03 09:44:25;;;;;;;10.35;8.23;;;;;;;;;;6220150;28;20054;-69
2022/10/03 09:47:54;;;;;;;12.80;8.32;;;;;;;;;;6219434;28;20046;-69
2022/10/03 09:51:14;;;;;;;12.35;8.70;;;;;;;;;;6222363;28;20057;-69
2022/10/03 09:54:44;;;;;;;13.25;9.85;;;;;;;;;;6219564;28;20104;-69
2022/10/03 09:58:14;;;;;;;14.02;8.52;;;;;;;;;;6220939;28;20104;-69
2022/10/03 10:01:23;;;;;;;14.48;10.00;;;;;;;;;;6196166;28;20156;-69
2022/10/03 10:04:40;;;;;;;13.15;9.45;;;;;;;;;;6217422;28;20062;-68
2022/10/03 10:08:12;;;;;;;16.20;10.32;;;;;;;;;;6218549;28;20070;-68
2022/10/03 10:11:53;;;;;;;16.30;10.25;;;;;;;;;;6214819;28;20041;-69
2022/10/03 10:15:29;;;;;;;11.50;8.35;;;;;;;;;;6218261;28;20049;-70
2022/10/03 10:18:57;;;;;;;10.90;8.88;;;;;;;;;;6150118;28;20050;-70
2022/10/03 10:22:08;;;;;;;45.83;39.17;;;;;;;;;;6151436;28;20363;-69
2022/10/03 10:25:37;;;;;;;31.67;28.13;;;;;;;;;;6147969;28;20096;-69
2022/10/03 10:29:11;;;;;;;30.95;25.73;;;;;;;;;;6145467;28;20062;-69
2022/10/03 10:32:45;;;;;;;10.13;7.55;;;;;;;;;;6132977;28;20062;-69
2022/10/03 10:36:05;;;;;;;9.55;6.00;;;;;;;;;;6145623;28;20051;-70
2022/10/03 10:39:36;;;;;;;7.38;5.20;;;;;;;;;;6145903;28;20077;-69
2022/10/03 10:43:11;;;;;;;9.60;5.63;;;;;;;;;;6128294;28;20342;-70
2022/10/03 10:46:37;;;;;;;8.23;5.55;;;;;;;;;;6144971;28;20066;-69
2022/10/03 10:50:14;;;;;;;10.15;5.82;;;;;;;;;;6141917;28;20059;-69
2022/10/03 10:53:57;;;;;;;10.68;6.53;;;;;;;;;;6147670;28;20063;-74
2022/10/03 10:57:10;;;;;;;9.35;5.63;;;;;;;;;;6188037;28;20295;-69
2022/10/03 11:00:21;;;;;;;8.70;5.68;;;;;;;;;;6189784;28;20628;-69
2022/10/03 11:04:10;;;;;;;9.10;5.22;;;;;;;;;;6216798;28;20046;-68
2022/10/03 11:07:37;;;;;;;7.70;5.00;;;;;;;;;;6214596;28;20053;-66
2022/10/03 11:10:56;;;;;;;9.13;6.03;;;;;;;;;;6173738;28;20158;-67
2022/10/03 11:14:47;;;;;;;6.45;4.80;;;;;;;;;;6213218;28;20321;-72
2022/10/03 11:18:03;;;;;;;7.63;4.10;;;;;;;;;;6201059;28;20349;-69
2022/10/03 11:21:28;;;;;;;9.93;5.47;;;;;;;;;;6199225;28;20366;-67
2022/10/03 11:25:15;;;;;;;7.78;4.97;;;;;;;;;;6213064;28;20060;-69
2022/10/03 11:28:40;;;;;;;9.15;5.55;;;;;;;;;;6214775;28;20050;-69
2022/10/03 11:32:25;;;;;;;9.10;5.25;;;;;;;;;;6210456;28;20061;-66
2022/10/03 11:35:44;;;;;;;8.82;4.43;;;;;;;;;;6143001;28;20059;-63
2022/10/03 11:38:53;;;;;;;9.13;5.03;;;;;;;;;;6137308;28;20258;-65
2022/10/03 11:42:01;;;;;;;8.65;4.72;;;;;;;;;;6136611;28;20088;-66
2022/10/03 11:45:06;;;;;;;9.50;5.30;;;;;;;;;;6136396;28;20257;-61
2022/10/03 11:48:23;;;;;;;37.80;25.52;;;;;;;;;;6137261;28;20385;-63
2022/10/03 11:51:37;;;;;;;242.85;216.48;;;;;;;;;;6135050;28;20051;-62
2022/10/03 11:54:39;;;;;;;156.45;139.55;;;;;;;;;;6137146;28;20355;-65
2022/10/03 11:57:44;;;;;;;145.52;123.90;;;;;;;;;;6139439;28;20073;-62
2022/10/03 12:00:52;;;;;;;248.13;207.93;;;;;;;;;;6138126;28;20059;-64
2022/10/03 12:03:59;;;;;;;94.50;80.15;;;;;;;;;;6142320;29;20144;-66
2022/10/03 12:10:34;;;;;;;27.05;20.27;;;;;;;;;;6143337;28;20088;-64
2022/10/03 12:13:41;;;;;;;11.38;7.05;;;;;;;;;;6213817;28;20061;-62
2022/10/03 12:17:08;;;;;;;13.93;6.97;;;;;;;;;;6212432;28;20058;-62
2022/10/03 12:20:18;;;;;;;10.65;6.18;;;;;;;;;;6207166;28;20099;-62
2022/10/03 12:23:31;;;;;;;6.68;4.05;;;;;;;;;;6212293;28;20070;-65
2022/10/03 12:26:43;;;;;;;7.30;4.80;;;;;;;;;;6210340;28;20064;-63
2022/10/03 12:29:54;;;;;;;7.38;4.13;;;;;;;;;;6212849;28;20153;-64
2022/10/03 12:33:08;;;;;;;8.43;5.47;;;;;;;;;;6210514;28;20365;-65
2022/10/03 12:36:12;;;;;;;9.50;5.63;;;;;;;;;;6212039;28;20082;-64
2022/10/03 12:39:24;;;;;;;8.63;4.63;;;;;;;;;;6212674;28;20058;-64
2022/10/03 12:42:29;;;;;;;10.20;5.33;;;;;;;;;;6208084;28;20336;-64
2022/10/03 12:45:35;;;;;;;11.10;4.72;;;;;;;;;;6207615;28;20117;-64
2022/10/03 12:48:44;;;;;;;9.35;5.28;;;;;;;;;;6206272;28;20110;-66
2022/10/03 12:51:57;;;;;;;6.93;4.00;;;;;;;;;;6207727;28;20070;-68
2022/10/03 12:55:14;;;;;;;4.20;3.22;;;;;;;;;;6215229;28;20054;-67
2022/10/03 12:58:18;;;;;;;6.22;3.80;;;;;;;;;;6213354;28;20163;-66
2022/10/03 13:01:28;;;;;;;5.50;3.00;;;;;;;;;;6208757;28;20330;-67
2022/10/03 13:04:38;;;;;;;7.53;2.85;;;;;;;;;;6210610;28;20209;-66
2022/10/03 13:07:51;;;;;;;7.05;2.90;;;;;;;;;;6217843;28;20133;-67
2022/10/03 13:10:53;;;;;;;;;;;;;;;;;;6212781;28;20054;-70
2022/10/03 13:14:06;;;;;;;5.07;2.20;;;;;;;;;;6216539;28;20204;-70
2022/10/03 13:17:09;;;;;;;;;;;;;;;;;;6216661;28;20046;-72
2022/10/03 13:20:13;;;;;;;;;;;;;;;;;;6216670;28;19930;-74
2022/10/03 13:23:23;;;;;;;4.65;2.70;;;;;;;;;;6216147;28;19948;-74
2022/10/03 13:26:28;;;;;;;6.03;2.65;;;;;;;;;;6214715;28;20125;-71
2022/10/03 13:29:37;;;;;;;4.15;2.40;;;;;;;;;;6215430;28;20097;-71
2022/10/03 13:32:41;;;;;;;5.40;2.80;;;;;;;;;;6215582;28;20330;-72
2022/10/03 13:36:01;;;;;;;4.90;2.88;;;;;;;;;;6216298;28;20295;-70
2022/10/03 13:39:12;;;;;;;5.13;2.42;;;;;;;;;;6210760;28;20105;-71
2022/10/03 13:42:18;;;;;;;5.38;2.35;;;;;;;;;;6216030;28;20065;-73
2022/10/03 13:45:24;;;;;;;5.35;2.10;;;;;;;;;;6217761;28;20121;-71
2022/10/03 13:48:27;;;;;;;5.53;2.50;;;;;;;;;;6220804;28;20066;-70
2022/10/03 13:51:38;;;;;;;4.60;2.10;;;;;;;;;;6217514;28;20050;-71
2022/10/03 13:55:00;;;;;;;4.20;2.40;;;;;;;;;;6221399;28;20061;-70
2022/10/03 13:58:17;;;;;;;5.57;2.60;;;;;;;;;;6214557;28;20120;-70
2022/10/03 14:01:33;;;;;;;5.35;2.67;;;;;;;;;;6206269;28;20058;-67
2022/10/03 14:04:43;;;;;;;6.13;3.08;;;;;;;;;;6221497;28;20054;-73
2022/10/03 14:07:52;;;;;;;8.40;2.83;;;;;;;;;;6217585;28;20070;-65
2022/10/03 14:11:17;;;;;;;5.15;2.55;;;;;;;;;;6216628;28;20046;-68
2022/10/03 14:14:43;;;;;;;4.75;2.05;;;;;;;;;;6218525;28;20065;-69
2022/10/03 14:17:50;;;;;;;4.63;1.80;;;;;;;;;;6214581;28;21421;-66
2022/10/03 14:21:25;;;;;;;10.15;3.65;;;;;;;;;;6216768;28;20234;-66
2022/10/03 14:24:37;;;;;;;7.68;2.65;;;;;;;;;;6220337;28;20080;-65
2022/10/03 14:27:47;;;;;;;4.05;2.10;;;;;;;;;;6220126;28;20055;-65
2022/10/03 14:30:58;;;;;;;4.07;2.38;;;;;;;;;;6219558;28;20330;-66
2022/10/03 14:34:06;;;;;;;6.35;1.77;;;;;;;;;;6220087;28;20317;-65
2022/10/03 14:37:16;;;;;;;4.13;1.90;;;;;;;;;;6212138;28;20534;-65
2022/10/03 14:40:22;;;;;;;3.28;1.73;;;;;;;;;;6210624;28;20101;-68
2022/10/03 14:43:32;;;;;;;3.75;1.60;;;;;;;;;;6210798;28;20116;-67
2022/10/03 14:46:38;;;;;;;4.25;2.00;;;;;;;;;;6214412;28;20061;-67
2022/10/03 14:49:49;;;;;;;7.80;1.95;;;;;;;;;;6220223;28;20334;-65
2022/10/03 14:53:00;;;;;;;5.75;1.70;;;;;;;;;;6213772;28;20061;-64
2022/10/03 14:56:07;;;;;;;6.78;2.38;;;;;;;;;;6213188;28;20053;-64
2022/10/03 14:59:12;;;;;;;7.55;1.85;;;;;;;;;;6217313;28;20057;-66
2022/10/03 15:02:28;;;;;;;5.20;1.75;;;;;;;;;;6215205;28;20050;-64
2022/10/03 15:05:34;;;;;;;3.95;1.80;;;;;;;;;;6216631;28;20049;-69
2022/10/03 15:08:38;;;;;;;14.18;2.30;;;;;;;;;;6217575;28;20113;-63
2022/10/03 15:11:48;;;;;;;3.38;1.58;;;;;;;;;;6216794;28;20050;-65
2022/10/03 15:14:57;;;;;;;3.70;1.88;;;;;;;;;;6215233;28;20061;-64
2022/10/03 15:18:01;;;;;;;5.55;1.63;;;;;;;;;;6212659;28;20054;-68
2022/10/03 15:21:05;;;;;;;7.05;1.70;;;;;;;;;;6220591;28;20054;-67
2022/10/03 15:24:11;;;;;;;3.38;1.60;;;;;;;;;;6213212;28;20092;-67
2022/10/03 15:27:21;;;;;;;3.75;1.55;;;;;;;;;;6210711;28;20161;-65
2022/10/03 15:30:25;;;;;;;6.30;1.70;;;;;;;;;;6201294;28;20150;-67
2022/10/03 15:33:29;;;;;;;3.65;1.38;;;;;;;;;;6215792;28;20067;-68
2022/10/03 15:36:36;;;;;;;6.32;1.90;;;;;;;;;;6212426;28;20064;-67
2022/10/03 15:39:41;;;;;;;4.10;1.83;;;;;;;;;;6212579;28;20050;-66
2022/10/03 15:42:47;;;;;;;7.13;2.10;;;;;;;;;;6218814;28;20053;-68
2022/10/03 15:45:49;;;;;;;5.30;1.48;;;;;;;;;;6214170;28;20258;-69
2022/10/03 15:48:53;;;;;;;5.90;2.43;;;;;;;;;;6216356;28;20333;-70
2022/10/03 15:51:55;;;;;;;3.78;1.88;;;;;;;;;;6214768;28;20058;-69
2022/10/03 15:54:58;;;;;;;;;;;;;;;;;;6216030;28;20434;-69
2022/10/03 15:58:07;;;;;;;5.78;1.90;;;;;;;;;;6213502;28;20086;-67
2022/10/03 16:01:11;;;;;;;4.75;1.73;;;;;;;;;;6209478;28;20061;-66
2022/10/03 16:04:20;;;;;;;4.18;1.60;;;;;;;;;;6209636;28;20283;-66
2022/10/03 16:07:28;;;;;;;3.65;1.63;;;;;;;;;;6215600;28;20282;-67
2022/10/03 16:10:33;;;;;;;4.50;1.73;;;;;;;;;;6215297;28;20229;-65
2022/10/03 16:13:38;;;;;;;4.25;2.20;;;;;;;;;;6217331;28;20396;-65
2022/10/03 16:16:42;;;;;;;4.97;2.13;;;;;;;;;;6213929;28;20152;-65
2022/10/03 16:19:51;;;;;;;10.15;2.95;;;;;;;;;;6215588;28;20050;-65
2022/10/03 16:22:53;;;;;;;6.90;2.00;;;;;;;;;;6216475;28;20077;-67
2022/10/03 16:25:58;;;;;;;7.35;2.03;;;;;;;;;;6215502;28;20057;-67
2022/10/03 16:29:08;;;;;;;5.00;2.53;;;;;;;;;;6212591;28;20116;-68
2022/10/03 16:32:16;;;;;;;8.00;2.55;;;;;;;;;;6214521;28;20069;-67
2022/10/03 16:35:32;;;;;;;5.57;2.22;;;;;;;;;;6215546;28;20153;-68
2022/10/03 16:38:37;;;;;;;4.97;2.40;;;;;;;;;;6209518;28;20114;-66
2022/10/03 16:41:42;;;;;;;5.68;2.70;;;;;;;;;;6221131;28;20049;-66
2022/10/03 16:44:51;;;;;;;8.48;3.28;;;;;;;;;;6219895;28;20340;-66
2022/10/03 16:51:17;;;;;;;9.32;3.03;;;;;;;;;;6216538;28;20362;-66
2022/10/03 16:54:21;;;;;;;7.45;2.80;;;;;;;;;;6217571;28;20049;-66
2022/10/03 16:57:30;;;;;;;8.20;3.00;;;;;;;;;;6214809;28;20065;-65
2022/10/03 17:00:39;;;;;;;8.23;2.85;;;;;;;;;;6214771;28;20072;-66
2022/10/03 17:03:44;;;;;;;8.45;3.20;;;;;;;;;;6213833;28;20241;-66
2022/10/03 17:06:47;;;;;;;8.55;3.17;;;;;;;;;;6213929;28;20065;-65
2022/10/03 17:09:50;;;;;;;7.45;3.30;;;;;;;;;;6213994;28;20046;-66
2022/10/03 17:12:54;;;;;;;7.75;3.22;;;;;;;;;;6212008;28;20053;-67
2022/10/03 17:16:00;;;;;;;6.97;3.80;;;;;;;;;;6209294;28;20068;-66
2022/10/03 17:19:09;;;;;;;14.60;3.63;;;;;;;;;;6217106;28;20054;-66
2022/10/03 17:22:16;;;;;;;6.22;3.08;;;;;;;;;;6215413;28;20050;-66
2022/10/03 17:25:35;;;;;;;9.52;4.07;;;;;;;;;;6217769;28;20096;-66
2022/10/03 17:28:43;;;;;;;8.45;4.03;;;;;;;;;;6211298;28;20121;-68
2022/10/03 17:31:49;;;;;;;8.45;4.03;;;;;;;;;;6208490;28;20111;-66
2022/10/03 17:34:55;;;;;;;10.15;3.58;;;;;;;;;;6208276;28;20136;-69
2022/10/03 17:38:13;;;;;;;7.70;3.88;;;;;;;;;;6214963;28;20100;-68
2022/10/03 17:41:19;;;;;;;12.95;4.57;;;;;;;;;;6211358;28;20747;-68
2022/10/03 17:44:32;;;;;;;8.40;4.40;;;;;;;;;;6209933;28;20283;-69
2022/10/03 17:47:45;;;;;;;9.45;4.22;;;;;;;;;;6208917;28;20060;-68
2022/10/03 17:50:54;;;;;;;6.38;3.53;;;;;;;;;;6212485;28;20140;-72
2022/10/03 17:53:57;;;;;;;6.20;3.53;;;;;;;;;;6212601;28;20161;-66
2022/10/03 17:57:05;;;;;;;10.48;4.18;;;;;;;;;;6216291;28;20052;-67
2022/10/03 18:00:16;;;;;;;10.68;3.65;;;;;;;;;;6213308;28;20053;-68
2022/10/03 18:03:24;;;;;;;8.40;3.53;;;;;;;;;;6215553;28;20218;-68
2022/10/03 18:06:47;;;;;;;9.38;4.20;;;;;;;;;;6217936;28;20057;-68
2022/10/03 18:09:50;;;;;;;10.20;3.97;;;;;;;;;;6220346;28;20046;-66
2022/10/03 18:12:53;;;;;;;;;;;;;;;;;;6220542;28;20473;-68
2022/10/03 18:16:08;;;;;;;9.63;4.23;;;;;;;;;;6215728;28;19963;-69
2022/10/03 18:19:22;;;;;;;11.18;4.25;;;;;;;;;;6224039;28;20234;-67
2022/10/03 18:22:28;;;;;;;10.25;3.92;;;;;;;;;;6220287;28;20093;-68
2022/10/03 18:29:00;;;;;;;10.10;4.45;;;;;;;;;;6218358;28;20115;-67
2022/10/03 18:32:12;;;;;;;14.00;4.93;;;;;;;;;;6219788;28;20069;-70
2022/10/03 18:35:19;;;;;;;10.67;4.70;;;;;;;;;;6216029;28;20054;-69
2022/10/03 18:38:22;;;;;;;7.88;5.00;;;;;;;;;;6217751;28;20563;-69
2022/10/03 18:41:24;;;;;;;12.32;4.85;;;;;;;;;;6218764;28;20105;-69
2022/10/03 18:44:28;;;;;;;14.27;5.88;;;;;;;;;;6217036;28;20046;-68
2022/10/03 18:47:33;;;;;;;10.27;5.32;;;;;;;;;;6218107;28;20061;-71
2022/10/03 18:50:47;;;;;;;11.35;5.90;;;;;;;;;;6220259;28;20053;-65
2022/10/03 18:53:53;;;;;;;13.88;5.05;;;;;;;;;;6216330;28;20132;-65
2022/10/03 18:57:04;;;;;;;12.00;5.35;;;;;;;;;;6216094;28;20104;-64
2022/10/03 19:00:08;;;;;;;10.57;5.72;;;;;;;;;;6217649;28;20249;-68
2022/10/03 19:03:14;;;;;;;11.30;5.95;;;;;;;;;;6218828;28;20052;-67
2022/10/03 19:06:21;;;;;;;13.38;7.43;;;;;;;;;;6221809;28;20068;-66
2022/10/03 19:09:26;;;;;;;19.48;11.80;;;;;;;;;;6218438;28;20049;-65
2022/10/03 19:12:32;;;;;;;22.60;12.90;;;;;;;;;;6214785;28;20046;-67
2022/10/03 19:15:44;;;;;;;16.52;10.07;;;;;;;;;;6215444;28;20045;-66
2022/10/03 19:18:56;;;;;;;15.18;8.55;;;;;;;;;;6213307;28;20058;-66
2022/10/03 19:22:01;;;;;;;19.63;10.70;;;;;;;;;;6218150;28;20070;-66
2022/10/03 19:25:06;;;;;;;30.13;14.88;;;;;;;;;;6214864;28;20053;-66
2022/10/03 19:28:14;;;;;;;36.40;20.85;;;;;;;;;;6214571;28;20330;-72
2022/10/03 19:31:19;;;;;;;27.13;17.20;;;;;;;;;;6217726;28;20050;-69
2022/10/03 19:34:25;;;;;;;46.05;25.80;;;;;;;;;;6214632;28;20087;-71
2022/10/03 19:37:39;;;;;;;39.78;21.58;;;;;;;;;;6214359;28;20046;-68
2022/10/03 19:40:45;;;;;;;29.73;16.63;;;;;;;;;;6212909;28;20115;-68
2022/10/03 19:43:48;;;;;;;26.08;13.38;;;;;;;;;;6218516;28;20101;-68
2022/10/03 19:47:06;;;;;;;23.90;11.93;;;;;;;;;;6220998;28;20046;-67